Time;durP1;ratioP1;P1;durP2;ratioP2;P2;SDS_P1;SDS_P2;PMS_P1;PMS_P2;Temp;Humidity;BMP_temperature;BMP_pressure;BME280_temperature;BME280_humidity;BME280_pressure;Samples;Min_cycle;Max_cycle;Signal;HPM_P1;HPM_P2
2023/10/29 00:02:10;;;;;;;16.70;14.93;;;;;;;;;;5045786;28;20463;-73
2023/10/29 00:04:35;;;;;;;9.80;8.80;;;;;;;;;;5046841;28;20044;-74
2023/10/29 00:07:04;;;;;;;7.10;5.95;;;;;;;;;;5044017;28;20047;-72
2023/10/29 00:09:29;;;;;;;7.80;5.57;;;;;;;;;;5044952;28;20028;-73
2023/10/29 00:11:55;;;;;;;7.13;4.57;;;;;;;;;;5044261;28;20021;-74
2023/10/29 00:14:20;;;;;;;5.28;3.50;;;;;;;;;;5043770;28;20124;-75
2023/10/29 00:16:45;;;;;;;5.43;3.15;;;;;;;;;;5044965;28;20033;-74
2023/10/29 00:19:11;;;;;;;4.25;2.72;;;;;;;;;;5045140;28;20032;-72
2023/10/29 00:21:37;;;;;;;6.35;2.70;;;;;;;;;;5043637;28;20114;-73
2023/10/29 00:24:03;;;;;;;4.63;2.45;;;;;;;;;;5044539;28;20036;-75
2023/10/29 00:26:28;;;;;;;4.03;2.30;;;;;;;;;;5044699;28;20028;-73
2023/10/29 00:28:53;;;;;;;4.18;2.45;;;;;;;;;;5045973;28;20089;-74
2023/10/29 00:31:20;;;;;;;4.10;2.60;;;;;;;;;;5033432;28;20413;-72
2023/10/29 00:33:46;;;;;;;4.78;2.13;;;;;;;;;;5042784;28;20029;-76
2023/10/29 00:36:11;;;;;;;4.93;2.60;;;;;;;;;;5061030;28;20039;-72
2023/10/29 00:38:37;;;;;;;4.45;2.60;;;;;;;;;;5042811;28;20017;-73
2023/10/29 00:41:03;;;;;;;3.20;2.42;;;;;;;;;;5043959;28;20119;-72
2023/10/29 00:43:29;;;;;;;4.22;2.85;;;;;;;;;;5046842;28;20409;-73
2023/10/29 00:45:55;;;;;;;5.20;2.95;;;;;;;;;;5032829;28;20063;-74
2023/10/29 00:48:21;;;;;;;8.57;4.05;;;;;;;;;;5044264;28;20025;-72
2023/10/29 00:50:46;;;;;;;7.53;3.78;;;;;;;;;;5043712;28;20028;-71
2023/10/29 00:53:12;;;;;;;5.57;3.67;;;;;;;;;;5034434;28;20044;-73
2023/10/29 00:55:37;;;;;;;4.78;3.35;;;;;;;;;;5043622;28;20066;-73
2023/10/29 00:58:03;;;;;;;5.63;3.33;;;;;;;;;;5046119;28;20033;-74
2023/10/29 01:00:29;;;;;;;4.38;2.60;;;;;;;;;;5044092;28;20017;-72
2023/10/29 01:02:54;;;;;;;2.97;2.30;;;;;;;;;;5043184;28;20029;-72
2023/10/29 01:05:20;;;;;;;7.50;2.55;;;;;;;;;;5042207;28;20033;-72
2023/10/29 01:07:46;;;;;;;6.15;2.60;;;;;;;;;;5042431;28;20606;-79
2023/10/29 01:10:12;;;;;;;5.88;3.03;;;;;;;;;;5042394;28;20025;-72
2023/10/29 01:12:38;;;;;;;11.95;7.22;;;;;;;;;;5041696;28;20348;-74
2023/10/29 01:15:04;;;;;;;8.40;6.18;;;;;;;;;;5036314;28;20078;-75
2023/10/29 01:17:30;;;;;;;6.63;2.97;;;;;;;;;;5037807;28;20372;-72
2023/10/29 01:19:56;;;;;;;4.85;2.38;;;;;;;;;;5042125;28;20027;-73
2023/10/29 01:22:22;;;;;;;4.05;2.40;;;;;;;;;;5041117;28;20021;-72
2023/10/29 01:24:48;;;;;;;4.43;2.75;;;;;;;;;;5035489;28;20029;-72
2023/10/29 01:27:14;;;;;;;3.30;2.40;;;;;;;;;;5038503;28;20059;-73
2023/10/29 01:29:39;;;;;;;4.80;2.92;;;;;;;;;;5041817;28;20381;-74
2023/10/29 01:32:05;;;;;;;4.25;2.90;;;;;;;;;;5042072;28;20025;-72
2023/10/29 01:34:31;;;;;;;6.25;2.65;;;;;;;;;;5041690;28;20138;-72
2023/10/29 01:36:56;;;;;;;5.40;3.10;;;;;;;;;;5040710;28;20052;-72
2023/10/29 01:39:22;;;;;;;5.18;3.33;;;;;;;;;;5042128;28;20061;-72
2023/10/29 01:41:47;;;;;;;4.18;2.80;;;;;;;;;;5040896;28;20021;-75
2023/10/29 01:44:13;;;;;;;14.93;7.55;;;;;;;;;;5040423;28;20428;-71
2023/10/29 01:46:38;;;;;;;7.05;4.63;;;;;;;;;;5042204;28;20075;-75
2023/10/29 01:49:07;;;;;;;7.85;4.55;;;;;;;;;;5042178;28;20436;-72
2023/10/29 01:51:32;;;;;;;7.40;5.10;;;;;;;;;;5042199;28;20029;-74
2023/10/29 01:53:57;;;;;;;7.05;4.93;;;;;;;;;;5039370;28;20090;-74
2023/10/29 01:56:23;;;;;;;6.32;3.40;;;;;;;;;;5036483;28;20573;-73
2023/10/29 01:58:48;;;;;;;5.47;3.28;;;;;;;;;;5037001;28;20032;-73
2023/10/29 02:01:14;;;;;;;5.40;3.63;;;;;;;;;;5038403;28;20044;-74
2023/10/29 02:03:39;;;;;;;5.35;3.33;;;;;;;;;;5043136;28;20027;-72
2023/10/29 02:06:14;;;;;;;5.38;3.00;;;;;;;;;;5040634;28;20337;-72
2023/10/29 02:08:39;;;;;;;6.65;3.40;;;;;;;;;;5043236;28;20025;-77
2023/10/29 02:11:04;;;;;;;3.97;2.75;;;;;;;;;;5043777;28;20033;-74
2023/10/29 02:13:30;;;;;;;6.45;2.63;;;;;;;;;;5043303;28;20622;-72
2023/10/29 02:15:55;;;;;;;3.90;2.72;;;;;;;;;;5033192;28;20675;-72
2023/10/29 02:18:20;;;;;;;6.57;3.03;;;;;;;;;;5043853;28;20400;-72
2023/10/29 02:20:46;;;;;;;4.00;3.60;;;;;;;;;;5036289;28;20025;-72
2023/10/29 02:23:11;;;;;;;5.40;3.08;;;;;;;;;;5048730;28;20048;-72
2023/10/29 02:25:36;;;;;;;7.40;4.50;;;;;;;;;;5046266;28;20041;-72
2023/10/29 02:28:02;;;;;;;6.72;4.55;;;;;;;;;;5045751;28;20021;-72
2023/10/29 02:30:27;;;;;;;6.53;3.95;;;;;;;;;;5044645;28;20025;-77
2023/10/29 02:32:52;;;;;;;8.55;4.03;;;;;;;;;;5045135;28;20044;-74
2023/10/29 02:35:18;;;;;;;6.05;3.45;;;;;;;;;;5046816;28;20036;-77
2023/10/29 02:37:43;;;;;;;7.32;3.75;;;;;;;;;;5038588;28;20049;-76
2023/10/29 02:40:09;;;;;;;11.48;3.78;;;;;;;;;;5040541;28;20024;-75
2023/10/29 02:42:34;;;;;;;6.30;3.63;;;;;;;;;;5045758;28;20131;-73
2023/10/29 02:44:59;;;;;;;6.53;2.92;;;;;;;;;;5046765;28;20045;-74
2023/10/29 02:47:25;;;;;;;7.75;3.15;;;;;;;;;;5044732;28;20104;-72
2023/10/29 02:49:51;;;;;;;6.18;3.13;;;;;;;;;;5047004;28;20043;-73
2023/10/29 02:52:16;;;;;;;6.43;2.67;;;;;;;;;;5036769;28;20163;-72
2023/10/29 02:54:41;;;;;;;5.78;2.92;;;;;;;;;;5043922;28;20056;-74
2023/10/29 02:57:07;;;;;;;6.05;3.92;;;;;;;;;;5045383;28;20021;-73
2023/10/29 02:59:32;;;;;;;7.32;3.60;;;;;;;;;;5045373;28;20108;-78
2023/10/29 03:01:57;;;;;;;7.60;2.88;;;;;;;;;;5047814;28;20033;-74
2023/10/29 03:04:23;;;;;;;4.45;2.75;;;;;;;;;;5045825;28;20437;-72
2023/10/29 03:06:48;;;;;;;6.78;3.28;;;;;;;;;;5047176;28;20393;-77
2023/10/29 03:09:14;;;;;;;8.18;2.70;;;;;;;;;;5046071;28;20020;-72
2023/10/29 03:11:39;;;;;;;5.30;3.15;;;;;;;;;;5045139;28;20028;-73
2023/10/29 03:14:04;;;;;;;4.95;3.00;;;;;;;;;;5044382;28;20086;-74
2023/10/29 03:16:30;;;;;;;6.13;3.42;;;;;;;;;;5044330;28;20029;-74
2023/10/29 03:18:55;;;;;;;8.27;4.47;;;;;;;;;;5045107;28;20455;-73
2023/10/29 03:21:21;;;;;;;8.00;5.10;;;;;;;;;;5043639;28;20017;-72
2023/10/29 03:23:46;;;;;;;7.38;4.82;;;;;;;;;;5038961;28;20550;-77
2023/10/29 03:26:12;;;;;;;7.35;5.22;;;;;;;;;;5044599;28;20068;-75
2023/10/29 03:28:39;;;;;;;6.75;4.25;;;;;;;;;;5045390;28;20029;-74
2023/10/29 03:31:14;;;;;;;7.55;4.15;;;;;;;;;;5044914;28;20120;-71
2023/10/29 03:33:40;;;;;;;8.57;5.28;;;;;;;;;;5046423;28;20037;-72
2023/10/29 03:36:06;;;;;;;6.50;4.53;;;;;;;;;;5044632;28;20462;-72
2023/10/29 03:38:31;;;;;;;7.20;3.50;;;;;;;;;;5043977;28;20083;-72
2023/10/29 03:40:56;;;;;;;7.07;3.72;;;;;;;;;;5041346;28;20056;-72
2023/10/29 03:43:22;;;;;;;9.10;3.33;;;;;;;;;;5039556;28;20060;-73
2023/10/29 03:45:47;;;;;;;5.45;3.55;;;;;;;;;;5033392;28;20048;-77
2023/10/29 03:48:15;;;;;;;6.60;4.03;;;;;;;;;;5043648;28;20428;-73
2023/10/29 03:50:40;;;;;;;6.05;3.67;;;;;;;;;;5045618;28;20031;-73
2023/10/29 03:53:06;;;;;;;4.13;2.85;;;;;;;;;;5032721;28;20032;-72
2023/10/29 03:55:31;;;;;;;4.57;3.05;;;;;;;;;;5044676;28;20051;-73
2023/10/29 03:57:57;;;;;;;7.50;4.28;;;;;;;;;;5043503;28;20053;-73
2023/10/29 04:00:22;;;;;;;7.38;3.50;;;;;;;;;;5032872;28;20071;-75
2023/10/29 04:02:48;;;;;;;4.95;3.30;;;;;;;;;;5045184;28;20029;-75
2023/10/29 04:05:14;;;;;;;8.93;3.15;;;;;;;;;;5044844;28;20090;-73
2023/10/29 04:07:40;;;;;;;8.35;3.47;;;;;;;;;;5045511;28;20031;-72
2023/10/29 04:10:05;;;;;;;5.10;3.38;;;;;;;;;;5045288;28;20027;-73
2023/10/29 04:12:32;;;;;;;9.25;3.38;;;;;;;;;;5042256;28;20035;-71
2023/10/29 04:14:57;;;;;;;6.15;4.05;;;;;;;;;;5045442;28;20119;-76
2023/10/29 04:17:23;;;;;;;7.78;3.75;;;;;;;;;;5047078;28;20410;-74
2023/10/29 04:19:48;;;;;;;6.18;3.67;;;;;;;;;;5044488;28;20086;-76
2023/10/29 04:22:13;;;;;;;9.35;4.65;;;;;;;;;;5043905;28;20094;-71
2023/10/29 04:24:39;;;;;;;8.25;4.35;;;;;;;;;;5042870;28;20044;-72
2023/10/29 04:27:05;;;;;;;7.63;4.30;;;;;;;;;;5043822;28;20032;-72
2023/10/29 04:29:30;;;;;;;6.18;3.80;;;;;;;;;;5039467;28;20386;-73
2023/10/29 04:31:55;;;;;;;6.07;3.90;;;;;;;;;;5033688;28;20029;-71
2023/10/29 04:34:21;;;;;;;9.90;3.97;;;;;;;;;;5033467;28;20060;-75
2023/10/29 04:36:51;;;;;;;5.75;3.40;;;;;;;;;;5043429;28;20091;-72
2023/10/29 04:39:19;;;;;;;6.55;3.67;;;;;;;;;;5044853;28;20360;-71
2023/10/29 04:41:46;;;;;;;6.57;3.20;;;;;;;;;;5046093;28;20514;-72
2023/10/29 04:44:11;;;;;;;5.32;3.00;;;;;;;;;;5044054;28;20036;-72
2023/10/29 04:46:38;;;;;;;7.18;2.92;;;;;;;;;;5042655;28;20114;-72
2023/10/29 04:49:03;;;;;;;5.13;2.65;;;;;;;;;;5042297;28;20036;-75
2023/10/29 04:51:30;;;;;;;6.70;3.03;;;;;;;;;;5043420;28;20032;-72
2023/10/29 04:53:55;;;;;;;7.97;2.45;;;;;;;;;;5041036;28;20124;-72
2023/10/29 04:56:20;;;;;;;4.97;3.20;;;;;;;;;;5043101;28;20112;-71
2023/10/29 04:58:46;;;;;;;10.13;6.70;;;;;;;;;;5041915;28;20085;-72
2023/10/29 05:01:11;;;;;;;42.13;38.17;;;;;;;;;;5036771;28;20029;-74
2023/10/29 05:03:36;;;;;;;72.93;66.22;;;;;;;;;;5027674;28;20122;-74
2023/10/29 05:06:03;;;;;;;66.10;59.63;;;;;;;;;;5034854;28;20040;-76
2023/10/29 05:08:29;;;;;;;61.25;55.47;;;;;;;;;;5040671;28;20033;-72
2023/10/29 05:10:55;;;;;;;87.55;79.05;;;;;;;;;;5041223;28;20104;-71
2023/10/29 05:13:20;;;;;;;93.78;84.63;;;;;;;;;;5045202;28;20028;-71
2023/10/29 05:15:45;;;;;;;101.32;91.85;;;;;;;;;;5043062;28;20017;-71
2023/10/29 05:18:11;;;;;;;114.38;103.78;;;;;;;;;;5042757;28;20040;-74
2023/10/29 05:20:37;;;;;;;52.88;47.53;;;;;;;;;;5040147;28;20040;-72
2023/10/29 05:23:02;;;;;;;36.53;32.72;;;;;;;;;;5042259;28;20025;-74
2023/10/29 05:25:28;;;;;;;61.17;52.00;;;;;;;;;;5030498;28;20036;-72
2023/10/29 05:27:54;;;;;;;65.15;55.63;;;;;;;;;;5030019;28;20560;-73
2023/10/29 05:30:19;;;;;;;45.70;40.33;;;;;;;;;;5029196;28;20504;-72
2023/10/29 05:32:44;;;;;;;51.78;35.33;;;;;;;;;;5029336;28;20033;-72
2023/10/29 05:35:10;;;;;;;66.85;50.28;;;;;;;;;;5030700;28;20027;-71
2023/10/29 05:37:35;;;;;;;70.93;54.28;;;;;;;;;;5036196;28;20044;-74
2023/10/29 05:40:04;;;;;;;39.30;31.55;;;;;;;;;;5038769;28;20064;-72
2023/10/29 05:42:31;;;;;;;29.65;24.60;;;;;;;;;;5041415;28;20029;-71
2023/10/29 05:44:57;;;;;;;21.23;17.67;;;;;;;;;;5032387;28;20064;-72
2023/10/29 05:47:22;;;;;;;15.57;13.82;;;;;;;;;;5040907;28;20045;-74
2023/10/29 05:49:47;;;;;;;15.60;12.60;;;;;;;;;;5038970;28;20459;-71
2023/10/29 05:52:13;;;;;;;14.07;11.45;;;;;;;;;;5035450;28;20116;-71
2023/10/29 05:54:38;;;;;;;11.60;8.77;;;;;;;;;;5041085;28;20036;-70
2023/10/29 05:57:04;;;;;;;9.27;6.07;;;;;;;;;;5042897;28;20439;-71
2023/10/29 05:59:29;;;;;;;10.15;5.65;;;;;;;;;;5041240;28;20047;-69
2023/10/29 06:01:54;;;;;;;8.73;6.18;;;;;;;;;;5040775;28;20037;-72
2023/10/29 06:04:20;;;;;;;10.00;5.20;;;;;;;;;;5058168;28;20056;-74
2023/10/29 06:06:45;;;;;;;9.27;5.95;;;;;;;;;;5039202;28;20115;-72
2023/10/29 06:09:11;;;;;;;7.90;5.50;;;;;;;;;;5040818;28;20103;-71
2023/10/29 06:11:39;;;;;;;9.20;6.45;;;;;;;;;;5041279;28;20075;-74
2023/10/29 06:14:04;;;;;;;8.63;4.65;;;;;;;;;;5041075;28;20033;-73
2023/10/29 06:16:30;;;;;;;5.07;3.63;;;;;;;;;;5042361;28;20047;-75
2023/10/29 06:18:55;;;;;;;4.70;3.75;;;;;;;;;;5042908;28;20100;-71
2023/10/29 06:21:20;;;;;;;7.35;4.65;;;;;;;;;;5030803;28;20025;-73
2023/10/29 06:23:46;;;;;;;13.10;6.43;;;;;;;;;;5043337;28;20403;-74
2023/10/29 06:26:12;;;;;;;16.65;10.15;;;;;;;;;;5044000;28;20475;-72
2023/10/29 06:28:37;;;;;;;29.77;20.85;;;;;;;;;;5042067;28;20711;-71
2023/10/29 06:31:02;;;;;;;20.27;13.13;;;;;;;;;;5041442;28;20060;-71
2023/10/29 06:33:28;;;;;;;17.60;10.82;;;;;;;;;;5039929;28;20485;-71
2023/10/29 06:35:57;;;;;;;15.70;11.27;;;;;;;;;;5040633;28;20044;-72
2023/10/29 06:38:23;;;;;;;13.98;9.32;;;;;;;;;;5043039;28;20080;-71
2023/10/29 06:40:48;;;;;;;10.68;6.95;;;;;;;;;;5042436;28;20090;-72
2023/10/29 06:43:14;;;;;;;11.48;7.25;;;;;;;;;;5043577;28;20032;-72
2023/10/29 06:45:39;;;;;;;11.63;6.50;;;;;;;;;;5041144;28;20028;-71
2023/10/29 06:48:05;;;;;;;10.93;6.03;;;;;;;;;;5041385;28;20037;-74
2023/10/29 06:50:30;;;;;;;7.72;4.70;;;;;;;;;;5043678;28;20017;-73
2023/10/29 06:52:56;;;;;;;6.85;4.30;;;;;;;;;;5029718;28;20025;-71
2023/10/29 06:55:23;;;;;;;12.38;5.10;;;;;;;;;;5031754;28;21102;-72
2023/10/29 06:57:48;;;;;;;20.70;12.75;;;;;;;;;;5044874;28;20025;-72
2023/10/29 07:00:14;;;;;;;10.60;5.88;;;;;;;;;;5044170;28;20025;-72
2023/10/29 07:02:39;;;;;;;8.68;4.50;;;;;;;;;;5041760;28;20035;-74
2023/10/29 07:05:04;;;;;;;8.82;4.35;;;;;;;;;;5047044;28;20100;-72
2023/10/29 07:07:30;;;;;;;7.68;4.07;;;;;;;;;;5042857;28;20111;-72
2023/10/29 07:09:56;;;;;;;10.90;4.45;;;;;;;;;;5035315;28;20588;-74
2023/10/29 07:12:21;;;;;;;6.53;3.95;;;;;;;;;;5033522;28;20111;-75
2023/10/29 07:14:46;;;;;;;8.77;4.43;;;;;;;;;;5036331;28;20029;-72
2023/10/29 07:17:12;;;;;;;7.65;3.65;;;;;;;;;;5034969;28;20029;-72
2023/10/29 07:19:38;;;;;;;7.85;3.88;;;;;;;;;;5035791;28;20104;-72
2023/10/29 07:22:03;;;;;;;9.52;4.00;;;;;;;;;;5032912;28;20036;-72
2023/10/29 07:24:29;;;;;;;6.85;3.70;;;;;;;;;;5033469;28;20037;-77
2023/10/29 07:26:54;;;;;;;7.90;4.03;;;;;;;;;;5036550;28;20063;-72
2023/10/29 07:29:20;;;;;;;5.22;3.25;;;;;;;;;;5034510;28;20078;-76
2023/10/29 07:31:45;;;;;;;6.72;4.38;;;;;;;;;;5033904;28;20024;-75
2023/10/29 07:34:10;;;;;;;8.00;4.13;;;;;;;;;;5032818;28;20048;-72
2023/10/29 07:36:36;;;;;;;8.40;5.30;;;;;;;;;;5035014;28;20045;-71
2023/10/29 07:39:01;;;;;;;9.40;6.32;;;;;;;;;;5036947;28;20099;-72
2023/10/29 07:41:27;;;;;;;16.50;10.05;;;;;;;;;;5049291;28;20029;-71
2023/10/29 07:43:52;;;;;;;19.40;13.30;;;;;;;;;;5042268;28;20083;-73
2023/10/29 07:46:17;;;;;;;17.92;12.98;;;;;;;;;;5040666;28;20111;-71
2023/10/29 07:48:43;;;;;;;14.25;9.93;;;;;;;;;;5045140;28;20029;-72
2023/10/29 07:51:09;;;;;;;7.78;5.32;;;;;;;;;;5041604;28;20120;-75
2023/10/29 07:53:34;;;;;;;9.18;6.22;;;;;;;;;;5039979;28;20477;-72
2023/10/29 07:56:10;;;;;;;11.23;5.85;;;;;;;;;;5033565;28;20112;-73
2023/10/29 07:58:36;;;;;;;9.80;7.30;;;;;;;;;;5044062;28;20017;-73
2023/10/29 08:01:02;;;;;;;14.32;7.95;;;;;;;;;;5045384;28;20098;-72
2023/10/29 08:03:27;;;;;;;7.38;5.20;;;;;;;;;;5046765;28;20033;-73
2023/10/29 08:05:53;;;;;;;8.30;5.22;;;;;;;;;;5044358;28;20033;-73
2023/10/29 08:08:18;;;;;;;7.82;4.10;;;;;;;;;;5045198;28;20025;-72
2023/10/29 08:10:44;;;;;;;10.05;5.75;;;;;;;;;;5045858;28;20120;-73
2023/10/29 08:13:10;;;;;;;7.28;4.53;;;;;;;;;;5044488;28;20025;-74
2023/10/29 08:15:38;;;;;;;7.68;4.30;;;;;;;;;;5044926;28;20012;-75
2023/10/29 08:18:04;;;;;;;9.43;4.53;;;;;;;;;;5031517;28;20033;-73
2023/10/29 08:20:29;;;;;;;5.30;3.45;;;;;;;;;;5032822;28;20702;-74
2023/10/29 08:22:54;;;;;;;7.03;3.53;;;;;;;;;;5033150;28;20029;-77
2023/10/29 08:25:20;;;;;;;7.10;3.20;;;;;;;;;;5033103;28;20025;-77
2023/10/29 08:27:46;;;;;;;6.47;2.90;;;;;;;;;;5031669;28;20024;-73
2023/10/29 08:30:12;;;;;;;4.70;2.28;;;;;;;;;;5033025;28;20902;-73
2023/10/29 08:32:37;;;;;;;6.45;2.67;;;;;;;;;;5034410;28;20039;-73
2023/10/29 08:35:03;;;;;;;8.40;4.00;;;;;;;;;;5035214;28;20035;-72
2023/10/29 08:37:28;;;;;;;7.47;3.75;;;;;;;;;;5031848;28;20052;-73
2023/10/29 08:39:57;;;;;;;6.57;3.22;;;;;;;;;;5031850;28;20029;-77
2023/10/29 08:42:22;;;;;;;6.40;3.80;;;;;;;;;;5031132;28;20025;-73
2023/10/29 08:44:48;;;;;;;6.78;3.70;;;;;;;;;;5032570;28;20044;-73
2023/10/29 08:47:13;;;;;;;6.78;3.47;;;;;;;;;;5030128;28;20052;-74
2023/10/29 08:49:38;;;;;;;5.43;2.90;;;;;;;;;;5031106;28;20047;-73
2023/10/29 08:52:04;;;;;;;8.35;2.70;;;;;;;;;;5033921;28;20070;-76
2023/10/29 08:54:29;;;;;;;6.85;4.32;;;;;;;;;;5029643;28;20056;-74
2023/10/29 08:56:55;;;;;;;8.82;3.40;;;;;;;;;;5032045;28;20033;-76
2023/10/29 08:59:20;;;;;;;10.18;3.67;;;;;;;;;;5040883;28;20131;-76
2023/10/29 09:01:46;;;;;;;6.82;3.17;;;;;;;;;;5044144;28;20095;-74
2023/10/29 09:04:11;;;;;;;5.63;3.30;;;;;;;;;;5042955;28;20033;-73
2023/10/29 09:06:37;;;;;;;4.40;1.90;;;;;;;;;;5045549;28;20072;-74
2023/10/29 09:09:04;;;;;;;4.68;1.92;;;;;;;;;;5044410;28;20396;-77
2023/10/29 09:11:29;;;;;;;3.67;1.77;;;;;;;;;;5035873;28;20028;-75
2023/10/29 09:13:54;;;;;;;5.82;1.77;;;;;;;;;;5029236;28;20408;-75
2023/10/29 09:16:20;;;;;;;5.35;1.70;;;;;;;;;;5032178;28;20024;-76
2023/10/29 09:18:46;;;;;;;4.68;1.50;;;;;;;;;;5030592;28;20029;-74
2023/10/29 09:21:11;;;;;;;4.55;1.70;;;;;;;;;;5030073;28;20020;-75
2023/10/29 09:23:37;;;;;;;4.35;1.90;;;;;;;;;;5028662;28;20115;-74
2023/10/29 09:26:03;;;;;;;3.67;1.67;;;;;;;;;;5028988;28;20032;-74
2023/10/29 09:28:28;;;;;;;4.22;1.73;;;;;;;;;;5027581;28;22333;-75
2023/10/29 09:30:53;;;;;;;4.35;1.90;;;;;;;;;;5029652;28;20120;-74
2023/10/29 09:33:19;;;;;;;5.28;2.10;;;;;;;;;;5027468;28;20025;-76
2023/10/29 09:35:44;;;;;;;3.70;1.70;;;;;;;;;;5029831;28;20032;-74
2023/10/29 09:38:10;;;;;;;4.90;1.42;;;;;;;;;;5029753;28;20051;-74
2023/10/29 09:40:35;;;;;;;3.45;1.55;;;;;;;;;;5030989;28;20166;-75
2023/10/29 09:43:05;;;;;;;4.40;1.77;;;;;;;;;;5035055;28;20210;-74
2023/10/29 09:45:32;;;;;;;3.92;1.60;;;;;;;;;;5042060;28;20032;-76
2023/10/29 09:47:58;;;;;;;3.60;1.70;;;;;;;;;;5033310;28;20025;-77
2023/10/29 09:50:24;;;;;;;2.67;1.30;;;;;;;;;;5029911;28;20083;-77
2023/10/29 09:52:52;;;;;;;3.67;1.42;;;;;;;;;;5042797;28;20040;-73
2023/10/29 09:55:20;;;;;;;5.00;1.65;;;;;;;;;;5042134;28;20025;-76
2023/10/29 09:57:45;;;;;;;13.55;8.10;;;;;;;;;;5033280;28;20147;-76
2023/10/29 10:00:11;;;;;;;8.90;4.72;;;;;;;;;;5041954;28;20120;-74
2023/10/29 10:03:08;;;;;;;3.85;1.50;;;;;;;;;;5043909;28;20382;-74
2023/10/29 10:05:35;;;;;;;3.90;1.27;;;;;;;;;;4999253;28;20038;-75
2023/10/29 10:08:00;;;;;;;3.88;1.60;;;;;;;;;;4985553;28;20110;-74
2023/10/29 10:10:38;;;;;;;8.50;2.45;;;;;;;;;;4987974;28;20049;-73
2023/10/29 10:13:04;;;;;;;2.50;1.30;;;;;;;;;;4986772;28;20185;-74
2023/10/29 10:15:29;;;;;;;3.90;1.58;;;;;;;;;;4986345;28;20046;-73
2023/10/29 10:17:58;;;;;;;2.90;1.42;;;;;;;;;;4987024;28;20092;-77
2023/10/29 10:20:24;;;;;;;3.35;1.60;;;;;;;;;;4983165;28;20446;-77
2023/10/29 10:22:56;;;;;;;2.72;1.33;;;;;;;;;;4982757;28;20037;-74
2023/10/29 10:25:23;;;;;;;3.30;1.63;;;;;;;;;;4981984;28;20045;-77
2023/10/29 10:27:58;;;;;;;4.07;1.90;;;;;;;;;;4965646;28;21558;-75
2023/10/29 10:30:24;;;;;;;3.20;1.63;;;;;;;;;;4983411;28;20322;-74
2023/10/29 10:32:50;;;;;;;5.10;1.90;;;;;;;;;;4990746;28;20040;-76
2023/10/29 10:35:15;;;;;;;6.93;1.70;;;;;;;;;;4997608;28;20053;-76
2023/10/29 10:37:56;;;;;;;4.03;1.63;;;;;;;;;;4998876;28;20049;-74
2023/10/29 10:40:23;;;;;;;3.17;1.50;;;;;;;;;;5009566;28;20044;-78
2023/10/29 10:42:55;;;;;;;3.65;1.38;;;;;;;;;;5049957;28;20102;-74
2023/10/29 10:45:28;;;;;;;5.95;1.75;;;;;;;;;;5050492;28;20128;-77
2023/10/29 10:47:55;;;;;;;5.65;2.08;;;;;;;;;;5048689;28;20079;-76
2023/10/29 10:50:21;;;;;;;3.08;1.58;;;;;;;;;;5049139;28;20064;-77
2023/10/29 10:52:48;;;;;;;3.10;1.50;;;;;;;;;;5062328;28;20064;-73
2023/10/29 10:55:14;;;;;;;3.25;1.33;;;;;;;;;;5051018;28;20102;-76
2023/10/29 10:57:39;;;;;;;1.20;0.90;;;;;;;;;;5042651;28;20415;-77
2023/10/29 11:00:05;;;;;;;3.22;1.10;;;;;;;;;;5038169;28;20112;-78
2023/10/29 11:02:32;;;;;;;3.95;1.10;;;;;;;;;;5047883;28;20025;-76
2023/10/29 11:04:58;;;;;;;2.60;1.55;;;;;;;;;;5047527;28;20463;-82
2023/10/29 11:07:24;;;;;;;1.42;1.05;;;;;;;;;;5048945;28;20060;-73
2023/10/29 11:09:49;;;;;;;5.95;1.40;;;;;;;;;;5046206;28;20048;-77
2023/10/29 11:12:15;;;;;;;1.13;0.90;;;;;;;;;;5032282;28;20067;-74
2023/10/29 11:15:00;;;;;;;4.85;1.25;;;;;;;;;;5033900;28;20436;-76
2023/10/29 11:17:44;;;;;;;2.40;1.00;;;;;;;;;;5032163;28;20538;-74
2023/10/29 11:20:29;;;;;;;8.88;1.75;;;;;;;;;;5046619;28;20360;-76
2023/10/29 11:23:05;;;;;;;3.28;1.20;;;;;;;;;;5045579;28;20025;-79
2023/10/29 11:25:30;;;;;;;3.20;1.30;;;;;;;;;;5046166;28;20363;-76
2023/10/29 11:27:56;;;;;;;3.40;1.17;;;;;;;;;;5046892;28;20563;-78
2023/10/29 11:30:22;;;;;;;5.80;1.23;;;;;;;;;;5047170;28;20029;-77
2023/10/29 11:33:06;;;;;;;9.30;4.93;;;;;;;;;;5046191;28;20035;-76
2023/10/29 11:35:34;;;;;;;3.85;3.15;;;;;;;;;;5047328;28;20031;-78
2023/10/29 11:38:01;;;;;;;3.13;2.53;;;;;;;;;;5045152;28;20470;-78
2023/10/29 11:40:33;;;;;;;6.90;2.00;;;;;;;;;;5045595;28;20029;-78
2023/10/29 11:43:20;;;;;;;18.02;3.05;;;;;;;;;;5036775;28;20040;-79
2023/10/29 11:46:11;;;;;;;2.72;1.08;;;;;;;;;;5035247;28;20032;-77
2023/10/29 11:48:56;;;;;;;4.35;1.35;;;;;;;;;;5044800;28;20040;-76
2023/10/29 11:51:22;;;;;;;65.68;4.28;;;;;;;;;;5044400;28;20352;-78
2023/10/29 11:53:48;;;;;;;1.55;0.82;;;;;;;;;;5047241;28;20430;-78
2023/10/29 11:56:14;;;;;;;1.45;0.98;;;;;;;;;;5047573;28;20033;-78
2023/10/29 11:58:39;;;;;;;7.00;3.88;;;;;;;;;;5046120;28;20411;-77
2023/10/29 12:01:06;;;;;;;4.28;2.70;;;;;;;;;;5044441;28;20041;-78
2023/10/29 12:03:32;;;;;;;3.35;1.40;;;;;;;;;;5044676;28;20025;-75
2023/10/29 12:05:57;;;;;;;2.42;1.20;;;;;;;;;;5044465;28;20444;-80
2023/10/29 12:08:23;;;;;;;7.43;6.47;;;;;;;;;;5046030;28;20025;-80
2023/10/29 12:10:49;;;;;;;3.83;3.00;;;;;;;;;;5043932;28;20025;-78
2023/10/29 12:13:18;;;;;;;1.85;1.10;;;;;;;;;;5044635;28;20496;-75
2023/10/29 12:15:57;;;;;;;1.27;0.88;;;;;;;;;;5044530;28;20029;-78
2023/10/29 12:18:23;;;;;;;1.90;1.08;;;;;;;;;;5046353;28;20033;-78
2023/10/29 12:20:48;;;;;;;1.25;0.77;;;;;;;;;;5044255;28;20016;-76
2023/10/29 12:23:14;;;;;;;1.60;0.90;;;;;;;;;;5038449;28;20086;-80
2023/10/29 12:25:39;;;;;;;2.42;1.02;;;;;;;;;;5043081;28;20218;-78
2023/10/29 12:28:06;;;;;;;3.85;1.00;;;;;;;;;;5047618;28;20028;-79
2023/10/29 12:30:34;;;;;;;2.53;1.23;;;;;;;;;;5047216;28;20044;-77
2023/10/29 12:33:20;;;;;;;1.88;0.88;;;;;;;;;;5045066;28;20035;-81
2023/10/29 12:35:47;;;;;;;1.45;0.80;;;;;;;;;;5044939;28;20031;-75
2023/10/29 12:38:13;;;;;;;2.05;0.80;;;;;;;;;;5044770;28;20106;-79
2023/10/29 12:40:57;;;;;;;4.68;1.10;;;;;;;;;;5045049;28;20436;-76
2023/10/29 12:43:42;;;;;;;4.05;1.00;;;;;;;;;;5045838;28;20033;-77
2023/10/29 12:46:09;;;;;;;1.85;1.02;;;;;;;;;;5048189;28;20417;-77
2023/10/29 12:48:34;;;;;;;4.07;1.10;;;;;;;;;;5046419;28;20031;-78
2023/10/29 12:51:00;;;;;;;3.00;1.58;;;;;;;;;;5049464;28;20033;-78
2023/10/29 12:53:27;;;;;;;2.58;1.20;;;;;;;;;;5046713;28;20106;-76
2023/10/29 12:55:52;;;;;;;2.25;1.10;;;;;;;;;;5045207;28;20440;-77
2023/10/29 12:58:18;;;;;;;1.80;1.15;;;;;;;;;;5045338;28;20025;-76
2023/10/29 13:00:43;;;;;;;2.92;1.25;;;;;;;;;;5034064;28;20420;-76
2023/10/29 13:03:09;;;;;;;1.70;1.02;;;;;;;;;;5030878;28;20036;-79
2023/10/29 13:05:35;;;;;;;4.38;1.48;;;;;;;;;;5028446;28;20094;-79
2023/10/29 13:08:00;;;;;;;2.95;1.02;;;;;;;;;;5030716;28;20475;-80
2023/10/29 13:10:25;;;;;;;2.00;1.10;;;;;;;;;;5026484;28;20370;-77
2023/10/29 13:12:51;;;;;;;3.30;1.17;;;;;;;;;;5028938;28;20044;-77
2023/10/29 13:15:18;;;;;;;2.17;1.17;;;;;;;;;;5027372;28;20032;-77
2023/10/29 13:17:43;;;;;;;3.35;0.95;;;;;;;;;;5028748;28;20095;-76
2023/10/29 13:20:11;;;;;;;1.60;0.93;;;;;;;;;;5029819;28;20017;-80
2023/10/29 13:22:39;;;;;;;3.85;1.40;;;;;;;;;;5029375;28;20033;-77
2023/10/29 13:25:06;;;;;;;3.00;0.98;;;;;;;;;;5032032;28;20025;-79
2023/10/29 13:27:31;;;;;;;2.35;1.20;;;;;;;;;;5026173;28;20029;-78
2023/10/29 13:29:58;;;;;;;3.00;1.38;;;;;;;;;;5030584;28;20082;-76
2023/10/29 13:32:23;;;;;;;3.35;1.33;;;;;;;;;;5027176;28;20024;-76
2023/10/29 13:34:51;;;;;;;2.67;1.20;;;;;;;;;;5027786;28;20021;-76
2023/10/29 13:37:17;;;;;;;2.33;1.30;;;;;;;;;;5030150;28;20055;-77
2023/10/29 13:39:42;;;;;;;2.92;1.05;;;;;;;;;;5031115;28;20131;-76
2023/10/29 13:42:08;;;;;;;2.20;1.23;;;;;;;;;;5028225;28;20021;-76
2023/10/29 13:44:37;;;;;;;2.33;1.00;;;;;;;;;;5029033;28;20025;-74
2023/10/29 13:47:02;;;;;;;3.00;1.10;;;;;;;;;;5030323;28;20037;-76
2023/10/29 13:49:28;;;;;;;3.45;1.10;;;;;;;;;;5029197;28;20036;-75
2023/10/29 13:51:53;;;;;;;2.20;1.00;;;;;;;;;;5028883;28;20035;-76
2023/10/29 13:54:19;;;;;;;2.63;1.10;;;;;;;;;;5027891;28;20044;-75
2023/10/29 13:56:44;;;;;;;3.35;1.10;;;;;;;;;;5030211;28;20031;-76
2023/10/29 13:59:10;;;;;;;2.72;1.05;;;;;;;;;;5029828;28;20179;-75
2023/10/29 14:01:35;;;;;;;3.42;1.00;;;;;;;;;;5028675;28;20035;-76
2023/10/29 14:04:00;;;;;;;2.72;0.85;;;;;;;;;;5030431;28;20223;-78
2023/10/29 14:06:26;;;;;;;1.90;1.20;;;;;;;;;;5038732;28;20126;-76
2023/10/29 14:08:52;;;;;;;2.50;1.00;;;;;;;;;;5047360;28;20409;-81
2023/10/29 14:11:19;;;;;;;2.75;1.33;;;;;;;;;;5032550;28;20028;-75
2023/10/29 14:13:44;;;;;;;3.03;1.48;;;;;;;;;;5027242;28;20035;-78
2023/10/29 14:16:10;;;;;;;3.83;2.78;;;;;;;;;;5032215;28;20017;-78
2023/10/29 14:18:35;;;;;;;1.02;0.80;;;;;;;;;;5034529;28;20372;-76
2023/10/29 14:21:02;;;;;;;2.40;0.93;;;;;;;;;;5048624;28;20624;-78
2023/10/29 14:23:27;;;;;;;1.25;0.73;;;;;;;;;;5040811;28;20028;-76
2023/10/29 14:25:53;;;;;;;1.92;1.05;;;;;;;;;;5034179;28;20028;-75
2023/10/29 14:28:18;;;;;;;2.60;2.38;;;;;;;;;;5040113;28;20029;-74
2023/10/29 14:30:43;;;;;;;5.13;4.63;;;;;;;;;;5047530;28;20368;-76
2023/10/29 14:33:09;;;;;;;3.00;1.67;;;;;;;;;;5046130;28;20459;-74
2023/10/29 14:35:35;;;;;;;14.45;10.35;;;;;;;;;;5048574;28;20402;-74
2023/10/29 14:38:01;;;;;;;6.22;4.15;;;;;;;;;;5045905;28;20076;-75